sensor_id;sensor_type;location;lat;lon;timestamp;P1;durP1;ratioP1;P2;durP2;ratioP2
5831;SDS011;50943;51.448;7.646;2022-09-13T00:00:47;6.97;;;3.87;;
5831;SDS011;50943;51.448;7.646;2022-09-13T00:03:14;4.77;;;3.93;;
5831;SDS011;50943;51.448;7.646;2022-09-13T00:05:40;5.40;;;3.77;;
5831;SDS011;50943;51.448;7.646;2022-09-13T00:08:08;7.83;;;3.30;;
5831;SDS011;50943;51.448;7.646;2022-09-13T00:10:35;6.30;;;3.63;;
5831;SDS011;50943;51.448;7.646;2022-09-13T00:13:02;4.03;;;3.27;;
5831;SDS011;50943;51.448;7.646;2022-09-13T00:15:29;5.87;;;3.60;;
5831;SDS011;50943;51.448;7.646;2022-09-13T00:17:55;5.50;;;3.77;;
5831;SDS011;50943;51.448;7.646;2022-09-13T00:20:22;5.03;;;3.57;;
5831;SDS011;50943;51.448;7.646;2022-09-13T00:22:48;5.90;;;3.87;;
5831;SDS011;50943;51.448;7.646;2022-09-13T00:25:16;5.97;;;4.70;;
5831;SDS011;50943;51.448;7.646;2022-09-13T00:27:43;7.23;;;4.63;;
5831;SDS011;50943;51.448;7.646;2022-09-13T00:30:10;5.03;;;3.90;;
5831;SDS011;50943;51.448;7.646;2022-09-13T00:32:37;5.13;;;4.10;;
5831;SDS011;50943;51.448;7.646;2022-09-13T00:35:05;4.70;;;3.93;;
5831;SDS011;50943;51.448;7.646;2022-09-13T00:37:31;5.30;;;3.70;;
5831;SDS011;50943;51.448;7.646;2022-09-13T00:39:58;4.07;;;3.40;;
5831;SDS011;50943;51.448;7.646;2022-09-13T00:42:26;3.90;;;3.40;;
5831;SDS011;50943;51.448;7.646;2022-09-13T00:44:53;5.00;;;3.67;;
5831;SDS011;50943;51.448;7.646;2022-09-13T00:47:22;5.63;;;3.37;;
5831;SDS011;50943;51.448;7.646;2022-09-13T00:49:50;4.70;;;3.70;;
5831;SDS011;50943;51.448;7.646;2022-09-13T00:52:18;5.33;;;3.90;;
5831;SDS011;50943;51.448;7.646;2022-09-13T00:54:46;5.60;;;4.07;;
5831;SDS011;50943;51.448;7.646;2022-09-13T00:57:14;5.73;;;3.60;;
5831;SDS011;50943;51.448;7.646;2022-09-13T00:59:44;4.30;;;3.60;;
5831;SDS011;50943;51.448;7.646;2022-09-13T01:02:11;6.80;;;4.10;;
5831;SDS011;50943;51.448;7.646;2022-09-13T01:04:38;4.63;;;3.87;;
5831;SDS011;50943;51.448;7.646;2022-09-13T01:07:06;6.20;;;3.73;;
5831;SDS011;50943;51.448;7.646;2022-09-13T01:09:33;4.77;;;3.87;;
5831;SDS011;50943;51.448;7.646;2022-09-13T01:12:02;5.70;;;3.77;;
5831;SDS011;50943;51.448;7.646;2022-09-13T01:14:32;5.60;;;3.60;;
5831;SDS011;50943;51.448;7.646;2022-09-13T01:17:00;5.20;;;3.80;;
5831;SDS011;50943;51.448;7.646;2022-09-13T01:19:27;4.90;;;4.17;;
5831;SDS011;50943;51.448;7.646;2022-09-13T01:27:40;4.73;;;4.20;;
5831;SDS011;50943;51.448;7.646;2022-09-13T01:30:22;5.10;;;3.60;;
5831;SDS011;50943;51.448;7.646;2022-09-13T01:33:00;4.97;;;3.93;;
5831;SDS011;50943;51.448;7.646;2022-09-13T01:35:32;5.33;;;3.70;;
5831;SDS011;50943;51.448;7.646;2022-09-13T01:38:02;4.33;;;3.47;;
5831;SDS011;50943;51.448;7.646;2022-09-13T01:40:36;6.37;;;3.63;;
5831;SDS011;50943;51.448;7.646;2022-09-13T01:45:58;6.33;;;3.80;;
5831;SDS011;50943;51.448;7.646;2022-09-13T01:48:28;5.70;;;4.70;;
5831;SDS011;50943;51.448;7.646;2022-09-13T01:50:59;5.30;;;4.20;;
5831;SDS011;50943;51.448;7.646;2022-09-13T01:53:28;5.03;;;3.70;;
5831;SDS011;50943;51.448;7.646;2022-09-13T01:55:58;5.90;;;4.30;;
5831;SDS011;50943;51.448;7.646;2022-09-13T01:58:28;5.20;;;4.10;;
5831;SDS011;50943;51.448;7.646;2022-09-13T02:01:01;9.90;;;4.30;;
5831;SDS011;50943;51.448;7.646;2022-09-13T02:03:30;4.80;;;4.00;;
5831;SDS011;50943;51.448;7.646;2022-09-13T02:05:59;6.10;;;4.30;;
5831;SDS011;50943;51.448;7.646;2022-09-13T02:08:33;9.40;;;3.70;;
5831;SDS011;50943;51.448;7.646;2022-09-13T02:11:03;8.20;;;3.80;;
5831;SDS011;50943;51.448;7.646;2022-09-13T02:13:32;6.40;;;4.00;;
5831;SDS011;50943;51.448;7.646;2022-09-13T02:16:04;4.33;;;3.80;;
5831;SDS011;50943;51.448;7.646;2022-09-13T02:18:33;7.50;;;3.93;;
5831;SDS011;50943;51.448;7.646;2022-09-13T02:21:05;4.37;;;3.77;;
5831;SDS011;50943;51.448;7.646;2022-09-13T02:23:33;6.47;;;4.60;;
5831;SDS011;50943;51.448;7.646;2022-09-13T02:26:01;5.10;;;4.00;;
5831;SDS011;50943;51.448;7.646;2022-09-13T02:28:31;13.93;;;4.10;;
5831;SDS011;50943;51.448;7.646;2022-09-13T02:30:58;6.30;;;3.70;;
5831;SDS011;50943;51.448;7.646;2022-09-13T02:33:28;4.00;;;3.50;;
5831;SDS011;50943;51.448;7.646;2022-09-13T02:35:57;6.37;;;3.63;;
5831;SDS011;50943;51.448;7.646;2022-09-13T02:38:25;5.60;;;4.10;;
5831;SDS011;50943;51.448;7.646;2022-09-13T02:40:54;5.33;;;4.33;;
5831;SDS011;50943;51.448;7.646;2022-09-13T02:43:24;4.20;;;3.10;;
5831;SDS011;50943;51.448;7.646;2022-09-13T02:48:37;10.57;;;4.57;;
5831;SDS011;50943;51.448;7.646;2022-09-13T02:51:06;4.33;;;3.87;;
5831;SDS011;50943;51.448;7.646;2022-09-13T02:53:35;5.80;;;3.90;;
5831;SDS011;50943;51.448;7.646;2022-09-13T02:56:04;4.20;;;3.30;;
5831;SDS011;50943;51.448;7.646;2022-09-13T02:58:38;5.10;;;3.70;;
5831;SDS011;50943;51.448;7.646;2022-09-13T03:01:06;4.70;;;3.37;;
5831;SDS011;50943;51.448;7.646;2022-09-13T03:03:32;7.33;;;4.13;;
5831;SDS011;50943;51.448;7.646;2022-09-13T03:06:00;4.13;;;3.67;;
5831;SDS011;50943;51.448;7.646;2022-09-13T03:08:26;4.00;;;3.10;;
5831;SDS011;50943;51.448;7.646;2022-09-13T03:10:56;10.10;;;3.77;;
5831;SDS011;50943;51.448;7.646;2022-09-13T03:13:29;4.40;;;3.20;;
5831;SDS011;50943;51.448;7.646;2022-09-13T03:16:03;5.47;;;4.00;;
5831;SDS011;50943;51.448;7.646;2022-09-13T03:18:47;5.27;;;3.70;;
5831;SDS011;50943;51.448;7.646;2022-09-13T03:21:21;5.13;;;3.50;;
5831;SDS011;50943;51.448;7.646;2022-09-13T03:23:54;5.43;;;3.70;;
5831;SDS011;50943;51.448;7.646;2022-09-13T03:26:25;6.90;;;3.40;;
5831;SDS011;50943;51.448;7.646;2022-09-13T03:29:01;4.70;;;3.80;;
5831;SDS011;50943;51.448;7.646;2022-09-13T03:31:31;3.97;;;3.20;;
5831;SDS011;50943;51.448;7.646;2022-09-13T03:34:02;4.57;;;3.63;;
5831;SDS011;50943;51.448;7.646;2022-09-13T03:36:34;4.43;;;3.30;;
5831;SDS011;50943;51.448;7.646;2022-09-13T03:39:03;5.53;;;3.10;;
5831;SDS011;50943;51.448;7.646;2022-09-13T03:41:34;7.60;;;3.57;;
5831;SDS011;50943;51.448;7.646;2022-09-13T03:44:02;7.87;;;3.37;;
5831;SDS011;50943;51.448;7.646;2022-09-13T03:46:32;4.40;;;3.30;;
5831;SDS011;50943;51.448;7.646;2022-09-13T03:49:00;5.07;;;3.23;;
5831;SDS011;50943;51.448;7.646;2022-09-13T03:51:28;8.80;;;3.80;;
5831;SDS011;50943;51.448;7.646;2022-09-13T03:53:57;4.70;;;3.23;;
5831;SDS011;50943;51.448;7.646;2022-09-13T03:56:24;4.27;;;3.53;;
5831;SDS011;50943;51.448;7.646;2022-09-13T03:58:51;8.60;;;3.60;;
5831;SDS011;50943;51.448;7.646;2022-09-13T04:01:18;4.20;;;3.00;;
5831;SDS011;50943;51.448;7.646;2022-09-13T04:03:45;6.30;;;4.03;;
5831;SDS011;50943;51.448;7.646;2022-09-13T04:06:12;6.00;;;3.67;;
5831;SDS011;50943;51.448;7.646;2022-09-13T04:08:38;6.30;;;3.90;;
5831;SDS011;50943;51.448;7.646;2022-09-13T04:11:06;4.93;;;3.70;;
5831;SDS011;50943;51.448;7.646;2022-09-13T04:13:33;6.40;;;3.50;;
5831;SDS011;50943;51.448;7.646;2022-09-13T04:16:00;7.17;;;3.23;;
5831;SDS011;50943;51.448;7.646;2022-09-13T04:18:27;3.97;;;3.50;;
5831;SDS011;50943;51.448;7.646;2022-09-13T04:20:54;7.20;;;3.63;;
5831;SDS011;50943;51.448;7.646;2022-09-13T04:23:20;4.33;;;3.90;;
5831;SDS011;50943;51.448;7.646;2022-09-13T04:25:47;5.03;;;4.10;;
5831;SDS011;50943;51.448;7.646;2022-09-13T04:28:15;3.77;;;3.20;;
5831;SDS011;50943;51.448;7.646;2022-09-13T04:30:42;8.23;;;3.97;;
5831;SDS011;50943;51.448;7.646;2022-09-13T04:33:08;4.53;;;3.10;;
5831;SDS011;50943;51.448;7.646;2022-09-13T04:35:35;4.80;;;3.87;;
5831;SDS011;50943;51.448;7.646;2022-09-13T04:38:03;5.63;;;4.07;;
5831;SDS011;50943;51.448;7.646;2022-09-13T04:40:29;3.93;;;2.90;;
5831;SDS011;50943;51.448;7.646;2022-09-13T04:42:56;4.30;;;3.30;;
5831;SDS011;50943;51.448;7.646;2022-09-13T04:45:24;5.40;;;3.43;;
5831;SDS011;50943;51.448;7.646;2022-09-13T04:47:50;5.23;;;3.17;;
5831;SDS011;50943;51.448;7.646;2022-09-13T04:50:18;4.77;;;3.57;;
5831;SDS011;50943;51.448;7.646;2022-09-13T04:52:44;5.43;;;4.40;;
5831;SDS011;50943;51.448;7.646;2022-09-13T04:55:11;6.00;;;3.40;;
5831;SDS011;50943;51.448;7.646;2022-09-13T04:57:38;4.40;;;3.90;;
5831;SDS011;50943;51.448;7.646;2022-09-13T05:00:04;6.43;;;3.53;;
5831;SDS011;50943;51.448;7.646;2022-09-13T05:02:32;4.87;;;4.20;;
5831;SDS011;50943;51.448;7.646;2022-09-13T05:04:59;4.33;;;3.40;;
5831;SDS011;50943;51.448;7.646;2022-09-13T05:07:25;4.23;;;3.43;;
5831;SDS011;50943;51.448;7.646;2022-09-13T05:09:52;4.13;;;3.50;;
5831;SDS011;50943;51.448;7.646;2022-09-13T05:12:18;5.30;;;3.17;;
5831;SDS011;50943;51.448;7.646;2022-09-13T05:14:45;5.00;;;3.37;;
5831;SDS011;50943;51.448;7.646;2022-09-13T05:17:11;3.50;;;2.87;;
5831;SDS011;50943;51.448;7.646;2022-09-13T05:19:39;7.37;;;3.63;;
5831;SDS011;50943;51.448;7.646;2022-09-13T05:22:05;5.13;;;3.20;;
5831;SDS011;50943;51.448;7.646;2022-09-13T05:24:32;3.37;;;3.07;;
5831;SDS011;50943;51.448;7.646;2022-09-13T05:26:58;11.23;;;3.00;;
5831;SDS011;50943;51.448;7.646;2022-09-13T05:29:25;4.60;;;3.00;;
5831;SDS011;50943;51.448;7.646;2022-09-13T05:31:51;4.20;;;3.30;;
5831;SDS011;50943;51.448;7.646;2022-09-13T05:34:17;6.03;;;3.00;;
5831;SDS011;50943;51.448;7.646;2022-09-13T05:36:45;4.53;;;3.20;;
5831;SDS011;50943;51.448;7.646;2022-09-13T05:39:15;4.70;;;2.90;;
5831;SDS011;50943;51.448;7.646;2022-09-13T05:41:42;3.83;;;2.77;;
5831;SDS011;50943;51.448;7.646;2022-09-13T05:44:09;3.67;;;3.10;;
5831;SDS011;50943;51.448;7.646;2022-09-13T05:46:35;3.70;;;3.30;;
5831;SDS011;50943;51.448;7.646;2022-09-13T05:49:01;3.90;;;3.13;;
5831;SDS011;50943;51.448;7.646;2022-09-13T05:51:28;5.10;;;3.30;;
5831;SDS011;50943;51.448;7.646;2022-09-13T05:53:56;5.00;;;3.30;;
5831;SDS011;50943;51.448;7.646;2022-09-13T05:56:24;4.43;;;3.40;;
5831;SDS011;50943;51.448;7.646;2022-09-13T05:58:51;8.50;;;3.40;;
5831;SDS011;50943;51.448;7.646;2022-09-13T06:01:19;3.83;;;3.17;;
5831;SDS011;50943;51.448;7.646;2022-09-13T06:03:45;8.60;;;2.90;;
5831;SDS011;50943;51.448;7.646;2022-09-13T06:06:12;4.40;;;3.20;;
5831;SDS011;50943;51.448;7.646;2022-09-13T06:08:39;6.00;;;3.40;;
5831;SDS011;50943;51.448;7.646;2022-09-13T06:11:07;7.50;;;3.47;;
5831;SDS011;50943;51.448;7.646;2022-09-13T06:13:34;8.13;;;3.73;;
5831;SDS011;50943;51.448;7.646;2022-09-13T06:16:01;5.30;;;3.57;;
5831;SDS011;50943;51.448;7.646;2022-09-13T06:18:28;3.50;;;2.63;;
5831;SDS011;50943;51.448;7.646;2022-09-13T06:20:57;4.60;;;3.57;;
5831;SDS011;50943;51.448;7.646;2022-09-13T06:23:24;6.30;;;3.00;;
5831;SDS011;50943;51.448;7.646;2022-09-13T06:25:57;3.77;;;3.10;;
5831;SDS011;50943;51.448;7.646;2022-09-13T06:28:25;4.80;;;3.80;;
5831;SDS011;50943;51.448;7.646;2022-09-13T06:30:51;3.30;;;2.93;;
5831;SDS011;50943;51.448;7.646;2022-09-13T06:33:18;6.50;;;3.17;;
5831;SDS011;50943;51.448;7.646;2022-09-13T06:35:44;5.17;;;2.90;;
5831;SDS011;50943;51.448;7.646;2022-09-13T06:38:11;8.63;;;3.50;;
5831;SDS011;50943;51.448;7.646;2022-09-13T06:40:37;4.00;;;2.97;;
5831;SDS011;50943;51.448;7.646;2022-09-13T06:43:04;6.70;;;3.23;;
5831;SDS011;50943;51.448;7.646;2022-09-13T06:45:31;5.27;;;3.20;;
5831;SDS011;50943;51.448;7.646;2022-09-13T06:47:58;5.00;;;3.30;;
5831;SDS011;50943;51.448;7.646;2022-09-13T06:50:24;4.50;;;3.10;;
5831;SDS011;50943;51.448;7.646;2022-09-13T06:52:50;5.73;;;3.00;;
5831;SDS011;50943;51.448;7.646;2022-09-13T06:55:17;22.10;;;3.87;;
5831;SDS011;50943;51.448;7.646;2022-09-13T06:57:43;4.00;;;2.80;;
5831;SDS011;50943;51.448;7.646;2022-09-13T07:00:10;4.27;;;2.90;;
5831;SDS011;50943;51.448;7.646;2022-09-13T07:02:38;3.77;;;2.93;;
5831;SDS011;50943;51.448;7.646;2022-09-13T07:05:05;5.30;;;3.37;;
5831;SDS011;50943;51.448;7.646;2022-09-13T07:07:31;4.57;;;3.00;;
5831;SDS011;50943;51.448;7.646;2022-09-13T07:09:58;6.53;;;3.10;;
5831;SDS011;50943;51.448;7.646;2022-09-13T07:12:25;5.30;;;3.30;;
5831;SDS011;50943;51.448;7.646;2022-09-13T07:14:51;4.60;;;3.20;;
5831;SDS011;50943;51.448;7.646;2022-09-13T07:17:18;4.30;;;2.90;;
5831;SDS011;50943;51.448;7.646;2022-09-13T07:19:45;6.80;;;4.10;;
5831;SDS011;50943;51.448;7.646;2022-09-13T07:22:12;5.10;;;4.10;;
5831;SDS011;50943;51.448;7.646;2022-09-13T07:24:38;5.30;;;3.20;;
5831;SDS011;50943;51.448;7.646;2022-09-13T07:27:04;4.20;;;2.80;;
5831;SDS011;50943;51.448;7.646;2022-09-13T07:29:31;4.83;;;3.10;;
5831;SDS011;50943;51.448;7.646;2022-09-13T07:31:57;8.07;;;3.23;;
5831;SDS011;50943;51.448;7.646;2022-09-13T07:34:24;5.30;;;2.47;;
5831;SDS011;50943;51.448;7.646;2022-09-13T07:36:52;3.80;;;2.73;;
5831;SDS011;50943;51.448;7.646;2022-09-13T07:39:19;5.07;;;2.97;;
5831;SDS011;50943;51.448;7.646;2022-09-13T07:41:45;5.43;;;2.97;;
5831;SDS011;50943;51.448;7.646;2022-09-13T07:44:12;3.97;;;2.60;;
5831;SDS011;50943;51.448;7.646;2022-09-13T07:46:39;12.27;;;4.67;;
5831;SDS011;50943;51.448;7.646;2022-09-13T07:49:07;3.17;;;2.70;;
5831;SDS011;50943;51.448;7.646;2022-09-13T07:51:34;4.97;;;2.60;;
5831;SDS011;50943;51.448;7.646;2022-09-13T07:54:03;4.17;;;3.00;;
5831;SDS011;50943;51.448;7.646;2022-09-13T07:56:30;3.90;;;2.90;;
5831;SDS011;50943;51.448;7.646;2022-09-13T07:58:57;5.73;;;3.03;;
5831;SDS011;50943;51.448;7.646;2022-09-13T08:01:25;4.73;;;2.60;;
5831;SDS011;50943;51.448;7.646;2022-09-13T08:03:52;4.73;;;2.73;;
5831;SDS011;50943;51.448;7.646;2022-09-13T08:06:19;2.97;;;2.30;;
5831;SDS011;50943;51.448;7.646;2022-09-13T08:08:46;3.23;;;2.30;;
5831;SDS011;50943;51.448;7.646;2022-09-13T08:11:16;3.50;;;2.30;;
5831;SDS011;50943;51.448;7.646;2022-09-13T08:13:43;3.90;;;2.50;;
5831;SDS011;50943;51.448;7.646;2022-09-13T08:16:09;3.57;;;2.10;;
5831;SDS011;50943;51.448;7.646;2022-09-13T08:18:36;4.60;;;2.30;;
5831;SDS011;50943;51.448;7.646;2022-09-13T08:21:02;4.30;;;2.57;;
5831;SDS011;50943;51.448;7.646;2022-09-13T08:23:28;3.53;;;2.23;;
5831;SDS011;50943;51.448;7.646;2022-09-13T08:25:59;3.70;;;2.53;;
5831;SDS011;50943;51.448;7.646;2022-09-13T08:28:27;2.33;;;2.07;;
5831;SDS011;50943;51.448;7.646;2022-09-13T08:30:53;6.50;;;2.77;;
5831;SDS011;50943;51.448;7.646;2022-09-13T08:33:19;3.33;;;2.40;;
5831;SDS011;50943;51.448;7.646;2022-09-13T08:35:49;4.30;;;2.50;;
5831;SDS011;50943;51.448;7.646;2022-09-13T08:38:15;4.23;;;2.43;;
5831;SDS011;50943;51.448;7.646;2022-09-13T08:40:42;7.90;;;2.40;;
5831;SDS011;50943;51.448;7.646;2022-09-13T08:43:11;4.03;;;2.30;;
5831;SDS011;50943;51.448;7.646;2022-09-13T08:45:41;5.70;;;2.20;;
5831;SDS011;50943;51.448;7.646;2022-09-13T08:48:14;5.13;;;2.47;;
5831;SDS011;50943;51.448;7.646;2022-09-13T08:50:42;2.70;;;2.23;;
5831;SDS011;50943;51.448;7.646;2022-09-13T08:53:12;4.50;;;2.57;;
5831;SDS011;50943;51.448;7.646;2022-09-13T08:55:48;6.13;;;2.70;;
5831;SDS011;50943;51.448;7.646;2022-09-13T08:58:25;5.73;;;2.60;;
5831;SDS011;50943;51.448;7.646;2022-09-13T09:00:58;3.70;;;2.10;;
5831;SDS011;50943;51.448;7.646;2022-09-13T09:03:28;5.93;;;2.20;;
5831;SDS011;50943;51.448;7.646;2022-09-13T09:05:56;9.80;;;2.37;;
5831;SDS011;50943;51.448;7.646;2022-09-13T09:08:26;4.23;;;2.20;;
5831;SDS011;50943;51.448;7.646;2022-09-13T09:10:55;3.70;;;2.50;;
5831;SDS011;50943;51.448;7.646;2022-09-13T09:13:24;5.20;;;2.50;;
5831;SDS011;50943;51.448;7.646;2022-09-13T09:15:52;6.20;;;2.60;;
5831;SDS011;50943;51.448;7.646;2022-09-13T09:18:22;4.23;;;2.40;;
5831;SDS011;50943;51.448;7.646;2022-09-13T09:20:49;4.30;;;2.60;;
5831;SDS011;50943;51.448;7.646;2022-09-13T09:23:18;5.23;;;2.27;;
5831;SDS011;50943;51.448;7.646;2022-09-13T09:25:44;9.23;;;2.50;;
5831;SDS011;50943;51.448;7.646;2022-09-13T09:28:11;4.83;;;2.70;;
5831;SDS011;50943;51.448;7.646;2022-09-13T09:30:40;10.23;;;3.80;;
5831;SDS011;50943;51.448;7.646;2022-09-13T09:33:12;5.80;;;3.00;;
5831;SDS011;50943;51.448;7.646;2022-09-13T09:35:47;4.37;;;2.53;;
5831;SDS011;50943;51.448;7.646;2022-09-13T09:38:19;6.60;;;3.40;;
5831;SDS011;50943;51.448;7.646;2022-09-13T09:40:50;5.77;;;3.00;;
5831;SDS011;50943;51.448;7.646;2022-09-13T09:43:19;4.23;;;2.43;;
5831;SDS011;50943;51.448;7.646;2022-09-13T09:45:48;5.17;;;3.03;;
5831;SDS011;50943;51.448;7.646;2022-09-13T09:48:17;4.57;;;2.60;;
5831;SDS011;50943;51.448;7.646;2022-09-13T09:50:48;6.93;;;3.40;;
5831;SDS011;50943;51.448;7.646;2022-09-13T09:53:15;3.10;;;2.80;;
5831;SDS011;50943;51.448;7.646;2022-09-13T09:55:44;5.23;;;3.00;;
5831;SDS011;50943;51.448;7.646;2022-09-13T09:58:12;3.70;;;2.63;;
5831;SDS011;50943;51.448;7.646;2022-09-13T10:00:49;9.23;;;2.83;;
5831;SDS011;50943;51.448;7.646;2022-09-13T10:03:16;8.37;;;3.83;;
5831;SDS011;50943;51.448;7.646;2022-09-13T10:05:43;5.10;;;3.20;;
5831;SDS011;50943;51.448;7.646;2022-09-13T10:08:25;4.60;;;3.10;;
5831;SDS011;50943;51.448;7.646;2022-09-13T10:10:54;7.70;;;2.70;;
5831;SDS011;50943;51.448;7.646;2022-09-13T10:13:23;4.50;;;2.33;;
5831;SDS011;50943;51.448;7.646;2022-09-13T10:15:53;4.73;;;2.90;;
5831;SDS011;50943;51.448;7.646;2022-09-13T10:18:22;5.30;;;3.27;;
5831;SDS011;50943;51.448;7.646;2022-09-13T10:20:59;4.73;;;3.17;;
5831;SDS011;50943;51.448;7.646;2022-09-13T10:23:28;4.77;;;3.23;;
5831;SDS011;50943;51.448;7.646;2022-09-13T10:25:59;3.43;;;3.10;;
5831;SDS011;50943;51.448;7.646;2022-09-13T10:28:27;5.47;;;2.77;;
5831;SDS011;50943;51.448;7.646;2022-09-13T10:30:55;3.20;;;2.60;;
5831;SDS011;50943;51.448;7.646;2022-09-13T10:33:25;3.83;;;3.17;;
5831;SDS011;50943;51.448;7.646;2022-09-13T10:35:52;7.07;;;3.43;;
5831;SDS011;50943;51.448;7.646;2022-09-13T10:38:21;4.57;;;2.90;;
5831;SDS011;50943;51.448;7.646;2022-09-13T10:40:50;4.40;;;3.10;;
5831;SDS011;50943;51.448;7.646;2022-09-13T10:43:16;5.23;;;2.80;;
5831;SDS011;50943;51.448;7.646;2022-09-13T10:45:44;4.67;;;2.83;;
5831;SDS011;50943;51.448;7.646;2022-09-13T10:48:14;4.60;;;2.90;;
5831;SDS011;50943;51.448;7.646;2022-09-13T10:50:41;5.57;;;2.60;;
5831;SDS011;50943;51.448;7.646;2022-09-13T10:53:29;4.07;;;2.80;;
5831;SDS011;50943;51.448;7.646;2022-09-13T10:55:57;3.40;;;2.77;;
5831;SDS011;50943;51.448;7.646;2022-09-13T10:58:24;3.33;;;2.47;;
5831;SDS011;50943;51.448;7.646;2022-09-13T11:03:57;3.00;;;2.00;;
5831;SDS011;50943;51.448;7.646;2022-09-13T11:06:26;4.10;;;2.10;;
5831;SDS011;50943;51.448;7.646;2022-09-13T11:08:59;4.30;;;1.77;;
5831;SDS011;50943;51.448;7.646;2022-09-13T11:11:31;2.70;;;1.80;;
5831;SDS011;50943;51.448;7.646;2022-09-13T11:14:05;3.70;;;1.90;;
5831;SDS011;50943;51.448;7.646;2022-09-13T11:16:46;4.53;;;2.30;;
5831;SDS011;50943;51.448;7.646;2022-09-13T11:19:23;4.40;;;2.30;;
5831;SDS011;50943;51.448;7.646;2022-09-13T11:21:57;3.33;;;2.37;;
5831;SDS011;50943;51.448;7.646;2022-09-13T11:24:37;9.27;;;2.60;;
5831;SDS011;50943;51.448;7.646;2022-09-13T11:27:09;6.27;;;2.50;;
5831;SDS011;50943;51.448;7.646;2022-09-13T11:29:43;4.93;;;2.30;;
5831;SDS011;50943;51.448;7.646;2022-09-13T11:32:16;2.97;;;2.00;;
5831;SDS011;50943;51.448;7.646;2022-09-13T11:34:50;7.10;;;2.23;;
5831;SDS011;50943;51.448;7.646;2022-09-13T11:37:28;6.73;;;2.57;;
5831;SDS011;50943;51.448;7.646;2022-09-13T11:39:58;5.23;;;2.17;;
5831;SDS011;50943;51.448;7.646;2022-09-13T11:42:34;5.33;;;2.17;;
5831;SDS011;50943;51.448;7.646;2022-09-13T11:48:08;5.27;;;2.23;;
5831;SDS011;50943;51.448;7.646;2022-09-13T11:50:41;6.57;;;2.73;;
5831;SDS011;50943;51.448;7.646;2022-09-13T11:53:26;4.20;;;2.60;;
5831;SDS011;50943;51.448;7.646;2022-09-13T11:55:58;6.23;;;2.30;;
5831;SDS011;50943;51.448;7.646;2022-09-13T11:58:28;4.13;;;2.93;;
5831;SDS011;50943;51.448;7.646;2022-09-13T12:00:57;5.00;;;2.50;;
5831;SDS011;50943;51.448;7.646;2022-09-13T12:03:26;5.50;;;2.80;;
5831;SDS011;50943;51.448;7.646;2022-09-13T12:05:57;8.50;;;2.10;;
5831;SDS011;50943;51.448;7.646;2022-09-13T12:08:24;4.90;;;2.07;;
5831;SDS011;50943;51.448;7.646;2022-09-13T12:10:52;5.50;;;2.50;;
5831;SDS011;50943;51.448;7.646;2022-09-13T12:13:21;3.20;;;2.30;;
5831;SDS011;50943;51.448;7.646;2022-09-13T12:15:50;3.83;;;2.40;;
5831;SDS011;50943;51.448;7.646;2022-09-13T12:18:18;4.60;;;2.40;;
5831;SDS011;50943;51.448;7.646;2022-09-13T12:20:46;5.07;;;2.87;;
5831;SDS011;50943;51.448;7.646;2022-09-13T12:23:14;6.67;;;2.70;;
5831;SDS011;50943;51.448;7.646;2022-09-13T12:25:43;7.40;;;2.60;;
5831;SDS011;50943;51.448;7.646;2022-09-13T12:28:12;4.40;;;2.47;;
5831;SDS011;50943;51.448;7.646;2022-09-13T12:30:43;4.77;;;2.10;;
5831;SDS011;50943;51.448;7.646;2022-09-13T12:33:13;3.20;;;2.73;;
5831;SDS011;50943;51.448;7.646;2022-09-13T12:35:47;3.00;;;2.17;;
5831;SDS011;50943;51.448;7.646;2022-09-13T12:38:22;5.80;;;2.20;;
5831;SDS011;50943;51.448;7.646;2022-09-13T12:40:56;3.53;;;1.87;;
5831;SDS011;50943;51.448;7.646;2022-09-13T12:43:30;4.67;;;2.33;;
5831;SDS011;50943;51.448;7.646;2022-09-13T12:46:16;3.70;;;2.33;;
5831;SDS011;50943;51.448;7.646;2022-09-13T12:48:58;3.93;;;2.40;;
5831;SDS011;50943;51.448;7.646;2022-09-13T12:51:31;8.30;;;2.00;;
5831;SDS011;50943;51.448;7.646;2022-09-13T12:54:05;5.40;;;2.50;;
5831;SDS011;50943;51.448;7.646;2022-09-13T12:56:39;6.57;;;2.50;;
5831;SDS011;50943;51.448;7.646;2022-09-13T12:59:19;7.60;;;2.53;;
5831;SDS011;50943;51.448;7.646;2022-09-13T13:01:50;6.17;;;2.50;;
5831;SDS011;50943;51.448;7.646;2022-09-13T13:04:19;3.70;;;2.10;;
5831;SDS011;50943;51.448;7.646;2022-09-13T13:06:48;2.40;;;2.20;;
5831;SDS011;50943;51.448;7.646;2022-09-13T13:09:21;3.00;;;2.20;;
5831;SDS011;50943;51.448;7.646;2022-09-13T13:11:48;5.43;;;2.70;;
5831;SDS011;50943;51.448;7.646;2022-09-13T13:19:52;3.90;;;2.40;;
5831;SDS011;50943;51.448;7.646;2022-09-13T13:27:44;4.97;;;2.60;;
5831;SDS011;50943;51.448;7.646;2022-09-13T13:33:03;4.10;;;2.97;;
5831;SDS011;50943;51.448;7.646;2022-09-13T13:35:31;4.03;;;2.70;;
5831;SDS011;50943;51.448;7.646;2022-09-13T13:38:12;4.83;;;3.43;;
5831;SDS011;50943;51.448;7.646;2022-09-13T13:40:38;6.17;;;3.60;;
5831;SDS011;50943;51.448;7.646;2022-09-13T13:43:15;7.90;;;3.80;;
5831;SDS011;50943;51.448;7.646;2022-09-13T13:45:55;8.67;;;3.50;;
5831;SDS011;50943;51.448;7.646;2022-09-13T13:48:33;9.53;;;4.00;;
5831;SDS011;50943;51.448;7.646;2022-09-13T13:51:21;8.60;;;3.90;;
5831;SDS011;50943;51.448;7.646;2022-09-13T13:53:49;7.40;;;4.17;;
5831;SDS011;50943;51.448;7.646;2022-09-13T13:56:32;12.50;;;4.20;;
5831;SDS011;50943;51.448;7.646;2022-09-13T13:59:02;7.27;;;4.50;;
5831;SDS011;50943;51.448;7.646;2022-09-13T14:01:30;5.57;;;4.60;;
5831;SDS011;50943;51.448;7.646;2022-09-13T14:06:45;9.00;;;4.40;;
5831;SDS011;50943;51.448;7.646;2022-09-13T14:09:18;7.67;;;4.80;;
5831;SDS011;50943;51.448;7.646;2022-09-13T14:11:53;8.43;;;4.97;;
5831;SDS011;50943;51.448;7.646;2022-09-13T14:14:40;5.23;;;3.30;;
5831;SDS011;50943;51.448;7.646;2022-09-13T14:17:24;6.33;;;3.40;;
5831;SDS011;50943;51.448;7.646;2022-09-13T14:19:54;4.93;;;3.60;;
5831;SDS011;50943;51.448;7.646;2022-09-13T14:22:23;5.20;;;3.70;;
5831;SDS011;50943;51.448;7.646;2022-09-13T14:24:51;11.90;;;3.67;;
5831;SDS011;50943;51.448;7.646;2022-09-13T14:27:18;7.20;;;4.00;;
5831;SDS011;50943;51.448;7.646;2022-09-13T14:29:46;6.83;;;3.80;;
5831;SDS011;50943;51.448;7.646;2022-09-13T14:32:15;6.80;;;3.53;;
5831;SDS011;50943;51.448;7.646;2022-09-13T14:34:49;7.77;;;3.93;;
5831;SDS011;50943;51.448;7.646;2022-09-13T14:37:17;5.23;;;3.10;;
5831;SDS011;50943;51.448;7.646;2022-09-13T14:39:53;7.27;;;3.50;;
5831;SDS011;50943;51.448;7.646;2022-09-13T14:42:20;5.80;;;3.43;;
5831;SDS011;50943;51.448;7.646;2022-09-13T14:44:46;5.53;;;3.57;;
5831;SDS011;50943;51.448;7.646;2022-09-13T14:47:14;10.67;;;4.60;;
5831;SDS011;50943;51.448;7.646;2022-09-13T14:49:43;7.50;;;4.00;;
5831;SDS011;50943;51.448;7.646;2022-09-13T14:52:14;8.20;;;4.00;;
5831;SDS011;50943;51.448;7.646;2022-09-13T14:54:42;8.10;;;4.20;;
5831;SDS011;50943;51.448;7.646;2022-09-13T14:57:17;8.03;;;4.30;;
5831;SDS011;50943;51.448;7.646;2022-09-13T14:59:47;7.00;;;3.90;;
5831;SDS011;50943;51.448;7.646;2022-09-13T15:02:15;6.33;;;4.20;;
5831;SDS011;50943;51.448;7.646;2022-09-13T15:04:44;7.67;;;3.90;;
5831;SDS011;50943;51.448;7.646;2022-09-13T15:07:17;4.73;;;3.70;;
5831;SDS011;50943;51.448;7.646;2022-09-13T15:09:45;5.57;;;3.93;;
5831;SDS011;50943;51.448;7.646;2022-09-13T15:12:19;11.33;;;4.20;;
5831;SDS011;50943;51.448;7.646;2022-09-13T15:14:47;7.27;;;3.90;;
5831;SDS011;50943;51.448;7.646;2022-09-13T15:17:13;8.53;;;5.20;;
5831;SDS011;50943;51.448;7.646;2022-09-13T15:19:40;7.73;;;5.07;;
5831;SDS011;50943;51.448;7.646;2022-09-13T15:22:12;8.77;;;6.30;;
5831;SDS011;50943;51.448;7.646;2022-09-13T15:24:41;13.80;;;7.37;;
5831;SDS011;50943;51.448;7.646;2022-09-13T15:27:15;12.03;;;6.90;;
5831;SDS011;50943;51.448;7.646;2022-09-13T15:29:47;9.47;;;6.70;;
5831;SDS011;50943;51.448;7.646;2022-09-13T15:32:18;9.50;;;6.50;;
5831;SDS011;50943;51.448;7.646;2022-09-13T15:34:46;9.17;;;6.57;;
5831;SDS011;50943;51.448;7.646;2022-09-13T15:37:13;17.00;;;6.73;;
5831;SDS011;50943;51.448;7.646;2022-09-13T15:39:46;8.20;;;5.63;;
5831;SDS011;50943;51.448;7.646;2022-09-13T15:42:13;9.60;;;6.80;;
5831;SDS011;50943;51.448;7.646;2022-09-13T15:44:39;7.57;;;6.27;;
5831;SDS011;50943;51.448;7.646;2022-09-13T15:47:09;10.43;;;5.60;;